Time;durP1;ratioP1;P1;durP2;ratioP2;P2;SDS_P1;SDS_P2;PMS_P1;PMS_P2;Temp;Humidity;BMP_temperature;BMP_pressure;BME280_temperature;BME280_humidity;BME280_pressure;Samples;Min_cycle;Max_cycle;Signal;HPM_P1;HPM_P2
2022/05/17 00:01:53;;;;;;;5.30;4.90;;;;;;;18.15;61.53;95081.84;5023276;28;20801;-80
2022/05/17 00:04:20;;;;;;;4.73;4.33;;;;;;;18.09;61.37;95095.00;5074286;28;20421;-79
2022/05/17 00:06:49;;;;;;;6.43;5.60;;;;;;;18.00;63.35;95074.78;5074242;28;20433;-80
2022/05/17 00:09:17;;;;;;;5.87;5.30;;;;;;;17.98;62.25;95084.75;5074343;28;20433;-79
2022/05/17 00:18:27;;;;;;;9.57;5.40;;;;;;;17.74;64.24;95096.25;5071773;28;20460;-80
2022/05/17 00:20:54;;;;;;;6.90;5.90;;;;;;;17.65;64.00;95082.16;5074421;28;20434;-79
2022/05/17 00:23:22;;;;;;;5.80;5.03;;;;;;;17.57;64.32;95095.41;5074133;28;20456;-80
2022/05/17 00:25:50;;;;;;;6.43;5.27;;;;;;;17.41;64.73;95090.13;5073891;28;20465;-80
2022/05/17 00:28:19;;;;;;;6.60;5.90;;;;;;;17.38;64.70;95090.47;5073812;28;20425;-80
2022/05/17 00:30:46;;;;;;;9.37;5.33;;;;;;;17.27;65.95;95092.44;5074388;28;20490;-80
2022/05/17 00:33:13;;;;;;;6.17;5.20;;;;;;;17.28;65.43;95091.44;5073722;28;20436;-80
2022/05/17 00:35:43;;;;;;;6.20;5.30;;;;;;;17.34;65.22;95095.25;5073604;28;21035;-80
2022/05/17 00:38:10;;;;;;;6.10;5.60;;;;;;;17.29;65.31;95098.41;5074304;28;20443;-80
2022/05/17 00:40:39;;;;;;;5.23;4.83;;;;;;;17.22;65.75;95093.94;5073935;28;20436;-80
2022/05/17 00:43:08;;;;;;;8.27;6.03;;;;;;;17.20;65.89;95096.75;5073509;28;20441;-80
2022/05/17 00:45:35;;;;;;;6.43;5.67;;;;;;;17.20;65.93;95093.28;5073894;28;20757;-80
2022/05/17 00:48:05;;;;;;;4.97;4.67;;;;;;;17.13;67.44;95097.59;5073064;28;20453;-80
2022/05/17 00:50:36;;;;;;;10.73;5.10;;;;;;;17.00;67.83;95095.41;5073870;28;20468;-80
2022/05/17 00:53:07;;;;;;;9.03;5.43;;;;;;;16.95;68.18;95095.91;5073916;28;20912;-80
2022/05/17 00:55:38;;;;;;;5.57;5.17;;;;;;;16.94;67.70;95093.41;5073721;28;20452;-79
2022/05/17 00:58:12;;;;;;;6.73;6.13;;;;;;;16.91;68.65;95093.75;5073338;28;20491;-80
2022/05/17 01:00:43;;;;;;;6.17;5.40;;;;;;;16.81;68.78;95079.84;5022010;28;20452;-80
2022/05/17 01:03:13;;;;;;;6.77;6.10;;;;;;;16.86;69.51;95090.78;5022108;28;20443;-81
2022/05/17 01:05:47;;;;;;;6.20;5.70;;;;;;;16.81;69.36;95093.91;5073504;28;21305;-80
2022/05/17 01:08:17;;;;;;;5.57;5.10;;;;;;;16.84;70.25;95088.28;5023281;28;20444;-80
2022/05/17 01:10:44;;;;;;;7.73;5.87;;;;;;;16.81;69.39;95087.78;5022862;28;20453;-80
2022/05/17 01:15:57;;;;;;;6.17;5.67;;;;;;;16.85;70.26;95081.16;5073242;28;20428;-80
2022/05/17 01:18:25;;;;;;;7.70;6.90;;;;;;;16.86;69.16;95080.16;5073183;28;20524;-78
2022/05/17 01:20:52;;;;;;;6.33;5.63;;;;;;;16.78;68.81;95077.50;5073505;28;20444;-80
2022/05/17 01:23:20;;;;;;;10.70;6.37;;;;;;;16.84;69.51;95077.69;5073065;28;20450;-79
2022/05/17 01:25:47;;;;;;;7.53;6.07;;;;;;;16.90;68.54;95074.38;5073896;28;20432;-80
2022/05/17 01:28:18;;;;;;;9.10;6.33;;;;;;;16.90;69.23;95076.19;5073815;28;20452;-80
2022/05/17 01:34:25;;;;;;;5.90;5.40;;;;;;;16.94;68.86;95066.91;5073235;28;20423;-80
2022/05/17 01:36:53;;;;;;;6.53;6.03;;;;;;;16.98;68.94;95070.88;5073199;28;20472;-80
2022/05/17 01:39:21;;;;;;;7.00;5.70;;;;;;;16.94;68.49;95066.91;5073324;28;20437;-80
2022/05/17 01:41:48;;;;;;;7.07;6.37;;;;;;;16.93;67.98;95071.38;5073459;28;20459;-80
2022/05/17 01:44:18;;;;;;;7.43;5.67;;;;;;;16.91;68.19;95070.72;5073062;28;20784;-80
2022/05/17 01:46:45;;;;;;;7.10;6.40;;;;;;;16.84;68.47;95068.91;5072944;28;20433;-80
2022/05/17 01:49:12;;;;;;;6.77;6.17;;;;;;;16.84;68.46;95071.56;5072921;28;20445;-80
2022/05/17 01:51:38;;;;;;;6.60;6.00;;;;;;;16.85;68.95;95074.03;5073674;28;20441;-82
2022/05/17 01:54:05;;;;;;;6.50;5.53;;;;;;;16.92;68.03;95071.56;5038114;28;20440;-79
2022/05/17 01:56:34;;;;;;;6.70;6.10;;;;;;;16.89;67.52;95074.53;5073282;28;20471;-80
2022/05/17 01:59:01;;;;;;;8.30;6.07;;;;;;;16.85;67.42;95076.69;5073708;28;20433;-79
2022/05/17 02:01:46;;;;;;;7.07;6.40;;;;;;;16.91;67.15;95077.84;5077767;28;20437;-80
2022/05/17 02:04:13;;;;;;;6.87;5.83;;;;;;;16.98;67.27;95081.50;5077095;28;20452;-80
2022/05/17 02:06:42;;;;;;;7.50;6.37;;;;;;;16.92;67.60;95077.69;5076855;28;20920;-80
2022/05/17 02:09:09;;;;;;;7.13;6.50;;;;;;;16.95;67.52;95089.78;5076551;28;20520;-78
2022/05/17 02:11:37;;;;;;;7.00;6.47;;;;;;;16.88;68.18;95086.13;5077391;28;20931;-79
2022/05/17 02:20:48;;;;;;;9.87;7.03;;;;;;;16.67;68.96;95086.59;5063099;28;20511;-81
2022/05/17 02:23:15;;;;;;;6.67;6.03;;;;;;;16.68;69.78;95091.72;5076877;28;20441;-79
2022/05/17 02:25:42;;;;;;;8.13;7.00;;;;;;;16.64;69.39;95092.19;5076748;28;20924;-81
2022/05/17 02:28:11;;;;;;;7.77;5.97;;;;;;;16.64;69.00;95089.53;5076295;28;20457;-80
2022/05/17 02:30:41;;;;;;;11.23;5.50;;;;;;;16.65;68.81;95088.53;5025145;28;21045;-79
2022/05/17 02:33:08;;;;;;;6.80;6.10;;;;;;;16.69;68.89;95085.44;5076576;28;20437;-80
2022/05/17 02:35:35;;;;;;;8.33;7.00;;;;;;;16.69;68.81;95095.19;5076402;28;20780;-80
2022/05/17 02:44:47;;;;;;;7.93;7.10;;;;;;;16.59;69.04;95094.50;5076348;28;20392;-79
2022/05/17 02:47:14;;;;;;;6.47;5.77;;;;;;;16.56;68.23;95093.00;5075895;28;20456;-80
2022/05/17 02:49:44;;;;;;;6.47;5.83;;;;;;;16.52;68.47;95089.00;5076312;28;20445;-80
2022/05/17 02:52:12;;;;;;;8.70;7.00;;;;;;;16.53;68.62;95089.84;5076139;28;20445;-80
2022/05/17 02:54:39;;;;;;;6.37;5.77;;;;;;;16.44;68.35;95075.72;5075970;28;20429;-80
2022/05/17 02:57:07;;;;;;;6.50;5.80;;;;;;;16.45;68.67;95080.03;5075746;28;20515;-80
2022/05/17 02:59:34;;;;;;;6.10;5.50;;;;;;;16.44;68.43;95081.03;5075606;28;20958;-80
2022/05/17 03:02:03;;;;;;;6.20;5.63;;;;;;;16.44;68.41;95088.97;5076007;28;20429;-78
2022/05/17 03:04:30;;;;;;;6.20;5.63;;;;;;;16.43;68.42;95092.59;5075544;28;20449;-81
2022/05/17 03:06:57;;;;;;;6.40;5.80;;;;;;;16.25;68.76;95086.59;5076295;28;20487;-81
2022/05/17 03:09:24;;;;;;;6.70;6.07;;;;;;;16.22;69.16;95084.28;5073027;28;20785;-80
2022/05/17 03:11:52;;;;;;;6.20;5.70;;;;;;;16.20;69.05;95087.09;5056479;28;20936;-80
2022/05/17 03:14:19;;;;;;;8.50;6.30;;;;;;;16.21;69.47;95082.63;5074909;28;20433;-78
2022/05/17 03:16:46;;;;;;;5.87;5.40;;;;;;;16.26;69.21;95088.25;5073221;28;20500;-81
2022/05/17 03:19:14;;;;;;;6.63;6.00;;;;;;;16.21;69.18;95086.09;5073114;28;20803;-79
2022/05/17 03:21:42;;;;;;;5.67;5.17;;;;;;;16.16;69.44;95090.19;5069695;28;20465;-79
2022/05/17 03:24:09;;;;;;;6.30;5.80;;;;;;;16.14;69.44;95092.16;5074371;28;20445;-81
2022/05/17 03:26:36;;;;;;;7.03;5.90;;;;;;;16.16;69.46;95098.97;5074883;28;20449;-80
2022/05/17 03:29:03;;;;;;;8.30;5.73;;;;;;;16.09;69.91;95090.81;5074712;28;20444;-80
2022/05/17 03:31:29;;;;;;;6.63;6.03;;;;;;;16.14;70.76;95094.81;5074085;28;20449;-80
2022/05/17 03:33:56;;;;;;;6.93;5.80;;;;;;;16.18;69.60;95098.78;5074903;28;20436;-81
2022/05/17 03:36:25;;;;;;;8.80;6.70;;;;;;;16.20;69.69;95095.03;5075168;28;20448;-81
2022/05/17 03:38:51;;;;;;;6.53;5.97;;;;;;;16.11;70.37;95102.09;5074797;28;21086;-81
2022/05/17 03:41:19;;;;;;;7.00;6.30;;;;;;;16.19;70.22;95100.44;5074698;28;20938;-80
2022/05/17 03:43:46;;;;;;;6.67;6.10;;;;;;;16.26;70.14;95098.84;5074769;28;20430;-80
2022/05/17 03:46:13;;;;;;;6.57;6.07;;;;;;;16.35;69.64;95103.19;5074990;28;20516;-80
2022/05/17 03:48:40;;;;;;;6.67;6.00;;;;;;;16.38;69.13;95100.22;5074839;28;20436;-80
2022/05/17 03:51:14;;;;;;;7.10;6.50;;;;;;;16.60;68.97;95096.97;5074825;28;20425;-80
2022/05/17 03:53:42;;;;;;;7.50;6.40;;;;;;;17.14;68.21;95096.59;5074490;28;20772;-80
2022/05/17 03:56:09;;;;;;;6.23;5.80;;;;;;;17.72;65.80;95093.78;5074783;28;20429;-80
2022/05/17 04:05:19;;;;;;;6.70;6.10;;;;;;;19.91;56.94;95112.97;5074545;28;20455;-80
2022/05/17 04:07:46;;;;;;;5.67;5.17;;;;;;;20.49;55.55;95113.19;5074666;28;20437;-81
2022/05/17 04:10:17;;;;;;;9.40;5.73;;;;;;;20.95;55.13;95113.78;5074616;28;20432;-80
2022/05/17 04:12:44;;;;;;;7.07;5.60;;;;;;;21.40;52.37;95117.16;5039377;28;20459;-81
2022/05/17 04:15:14;;;;;;;5.63;5.23;;;;;;;21.75;51.62;95110.06;5074039;28;20437;-80
2022/05/17 04:17:41;;;;;;;5.90;5.40;;;;;;;22.15;50.45;95112.03;5073968;28;20509;-81
2022/05/17 04:20:10;;;;;;;6.27;5.77;;;;;;;22.49;49.20;95110.38;5074022;28;20950;-78
2022/05/17 04:22:37;;;;;;;5.67;5.17;;;;;;;22.84;48.44;95106.66;5025673;28;20948;-80
2022/05/17 04:25:05;;;;;;;7.83;6.17;;;;;;;23.13;47.06;95115.38;5053870;28;20442;-80
2022/05/17 04:27:33;;;;;;;10.03;6.50;;;;;;;22.96;47.11;95122.97;5054841;28;20873;-80
2022/05/17 04:30:00;;;;;;;12.87;7.87;;;;;;;22.72;48.01;95118.91;5035628;28;20449;-81
2022/05/17 04:32:27;;;;;;;23.07;8.50;;;;;;;22.77;47.89;95116.47;5053773;28;20445;-80
2022/05/17 04:34:54;;;;;;;8.57;7.87;;;;;;;22.77;47.04;95121.00;5054107;28;20438;-80
2022/05/17 04:37:21;;;;;;;14.33;8.30;;;;;;;22.66;47.87;95108.19;5071758;28;20489;-80
2022/05/17 04:39:48;;;;;;;11.87;8.50;;;;;;;22.75;46.92;95118.50;5069562;28;20438;-80
2022/05/17 04:42:15;;;;;;;14.37;8.73;;;;;;;22.77;47.42;95121.81;5055306;28;20967;-80
2022/05/17 04:44:44;;;;;;;20.57;9.30;;;;;;;22.98;47.35;95118.22;5053944;28;20521;-80
2022/05/17 04:47:10;;;;;;;11.10;8.17;;;;;;;23.06;47.25;95104.66;5054870;28;20445;-81
2022/05/17 04:49:38;;;;;;;11.57;7.90;;;;;;;23.30;46.60;95116.66;5064268;28;20451;-80
2022/05/17 04:52:05;;;;;;;21.93;8.53;;;;;;;23.35;46.62;95122.22;5072642;28;20448;-80
2022/05/17 04:54:33;;;;;;;15.33;8.43;;;;;;;23.56;46.43;95123.13;5073439;28;20452;-81
2022/05/17 04:57:00;;;;;;;10.00;7.33;;;;;;;23.82;45.86;95131.19;5074416;28;20433;-80
2022/05/17 04:59:27;;;;;;;9.27;8.40;;;;;;;23.78;46.07;95121.91;5038684;28;20444;-80
2022/05/17 05:01:55;;;;;;;11.53;7.50;;;;;;;23.94;44.93;95124.16;5038442;28;20463;-80
2022/05/17 05:04:22;;;;;;;11.60;8.07;;;;;;;23.30;46.64;95122.03;5070693;28;20959;-80
2022/05/17 05:06:49;;;;;;;12.70;7.60;;;;;;;22.56;48.00;95119.28;5053353;28;20520;-81
2022/05/17 05:09:16;;;;;;;11.80;7.73;;;;;;;22.68;49.47;95115.00;5053289;28;20450;-81
2022/05/17 05:11:43;;;;;;;11.67;7.40;;;;;;;22.89;48.38;95122.13;5053798;28;20445;-80
2022/05/17 05:14:10;;;;;;;11.43;7.77;;;;;;;23.05;48.97;95115.56;5053660;28;20434;-80
2022/05/17 05:16:38;;;;;;;8.47;7.67;;;;;;;23.46;47.30;95121.66;5053644;28;20563;-79
2022/05/17 05:19:06;;;;;;;13.53;9.03;;;;;;;23.68;47.98;95118.81;5053469;28;20531;-79
2022/05/17 05:25:29;;;;;;;13.13;8.53;;;;;;;24.08;47.62;95114.28;5053234;28;20841;-79
2022/05/17 05:27:56;;;;;;;17.33;8.10;;;;;;;24.37;47.08;95113.03;5034697;28;20455;-79
2022/05/17 05:30:23;;;;;;;14.73;7.60;;;;;;;24.66;44.50;95101.78;5053365;28;21234;-80
2022/05/17 05:32:50;;;;;;;15.73;8.23;;;;;;;24.90;44.34;95102.94;5059230;28;20938;-79
2022/05/17 05:35:21;;;;;;;16.07;7.97;;;;;;;25.27;43.43;95103.19;5076714;28;20424;-81
2022/05/17 05:44:33;;;;;;;10.80;8.00;;;;;;;24.52;45.35;95113.59;5077173;28;20467;-79
2022/05/17 05:47:00;;;;;;;21.57;7.47;;;;;;;24.68;45.41;95115.81;5077384;28;20800;-79
2022/05/17 05:49:26;;;;;;;14.93;7.13;;;;;;;25.13;44.96;95112.34;5077344;28;20910;-80
2022/05/17 05:51:55;;;;;;;17.03;7.57;;;;;;;25.44;44.47;95112.38;5076605;28;21083;-79
2022/05/17 05:54:23;;;;;;;16.13;7.83;;;;;;;25.68;43.55;95113.50;5072847;28;20456;-79
2022/05/17 05:56:49;;;;;;;13.67;7.50;;;;;;;26.02;42.91;95114.91;5041726;28;20801;-80
2022/05/17 05:59:16;;;;;;;18.13;8.00;;;;;;;26.11;41.44;95110.88;5076695;28;20488;-80
2022/05/17 06:01:44;;;;;;;9.43;7.00;;;;;;;26.28;41.83;95110.28;5076796;28;20437;-80
2022/05/17 06:04:11;;;;;;;12.37;6.90;;;;;;;26.29;41.22;95112.75;5076811;28;20429;-79
2022/05/17 06:06:40;;;;;;;9.70;6.57;;;;;;;26.66;40.76;95107.47;5006157;28;20459;-80
2022/05/17 06:09:08;;;;;;;8.23;7.00;;;;;;;26.65;40.97;95108.50;5056728;28;20428;-80
2022/05/17 06:11:35;;;;;;;13.07;7.10;;;;;;;26.44;40.48;95107.06;5057585;28;20499;-79
2022/05/17 06:14:02;;;;;;;10.20;6.87;;;;;;;26.39;41.67;95106.91;5056545;28;20425;-80
2022/05/17 06:16:29;;;;;;;10.40;8.07;;;;;;;26.11;41.17;95105.50;5056611;28;20445;-79
2022/05/17 06:18:56;;;;;;;12.00;8.70;;;;;;;26.02;41.41;95104.13;5056306;28;20482;-79
2022/05/17 06:21:23;;;;;;;14.70;7.63;;;;;;;26.00;42.08;95108.06;5056947;28;20828;-80
2022/05/17 06:23:49;;;;;;;9.63;6.90;;;;;;;26.10;42.12;95108.41;5056329;28;20434;-80
2022/05/17 06:26:18;;;;;;;15.67;7.27;;;;;;;25.83;42.31;95111.31;5056089;28;21002;-80
2022/05/17 06:28:47;;;;;;;14.60;6.93;;;;;;;25.81;42.12;95109.91;5056310;28;20472;-80
2022/05/17 06:31:14;;;;;;;7.70;7.00;;;;;;;25.92;42.16;95096.53;5056046;28;20942;-80
2022/05/17 06:33:41;;;;;;;16.33;8.17;;;;;;;25.71;42.98;95114.91;5056317;28;20958;-80
2022/05/17 06:36:08;;;;;;;13.10;7.47;;;;;;;25.35;43.07;95110.16;5038051;28;20972;-79
2022/05/17 06:38:35;;;;;;;8.33;7.27;;;;;;;25.55;42.54;95108.19;5055971;28;20481;-80
2022/05/17 06:41:04;;;;;;;10.10;8.17;;;;;;;25.70;43.98;95114.09;5055653;28;20917;-79
2022/05/17 06:43:34;;;;;;;9.97;7.47;;;;;;;25.84;42.89;95102.22;5056569;28;20455;-80
2022/05/17 06:46:01;;;;;;;11.93;7.60;;;;;;;26.00;42.72;95102.69;5054930;28;20529;-78
2022/05/17 06:48:28;;;;;;;7.97;7.17;;;;;;;26.07;42.53;95098.09;5056101;28;20464;-79
2022/05/17 06:50:55;;;;;;;7.73;6.87;;;;;;;26.41;42.01;95096.75;5037494;28;20452;-78
2022/05/17 06:53:22;;;;;;;10.30;6.97;;;;;;;26.50;39.59;95098.91;5055340;28;20441;-80
2022/05/17 06:55:49;;;;;;;9.03;6.17;;;;;;;26.66;39.04;95096.69;5055946;28;20449;-79
2022/05/17 06:58:16;;;;;;;8.40;6.80;;;;;;;26.60;40.09;95094.88;5055859;28;20490;-78
2022/05/17 07:00:44;;;;;;;7.33;6.73;;;;;;;26.73;40.33;95081.28;5056410;28;20457;-79
2022/05/17 07:03:11;;;;;;;6.80;6.20;;;;;;;26.83;40.37;95086.94;5056014;28;20812;-80
2022/05/17 07:05:38;;;;;;;7.57;6.97;;;;;;;26.55;40.45;95088.31;5056460;28;20434;-79
2022/05/17 07:08:05;;;;;;;10.80;6.97;;;;;;;26.70;40.80;95079.03;5055445;28;20446;-79
2022/05/17 07:13:17;;;;;;;7.00;6.40;;;;;;;26.75;40.80;95084.56;5055323;28;20480;-80
2022/05/17 07:15:47;;;;;;;9.10;6.30;;;;;;;27.16;39.63;95087.38;5055494;28;20537;-80
2022/05/17 07:18:17;;;;;;;7.60;6.90;;;;;;;27.28;37.60;95081.22;5055520;28;20461;-79
2022/05/17 07:20:44;;;;;;;10.97;6.70;;;;;;;27.04;38.19;95081.13;5055871;28;20469;-79
2022/05/17 07:23:12;;;;;;;7.80;6.47;;;;;;;27.34;37.94;95081.13;5055108;28;20503;-79
2022/05/17 07:25:40;;;;;;;7.87;7.07;;;;;;;27.70;38.28;95079.38;5055493;28;20429;-80
2022/05/17 07:28:08;;;;;;;7.97;6.80;;;;;;;27.93;38.78;95078.59;5055030;28;20438;-79
2022/05/17 07:30:35;;;;;;;13.23;6.60;;;;;;;27.97;38.00;95077.88;5055231;28;20453;-78
2022/05/17 07:33:03;;;;;;;9.03;6.40;;;;;;;28.05;36.66;95079.44;5054921;28;20930;-79
2022/05/17 07:35:31;;;;;;;8.53;5.27;;;;;;;28.10;36.45;95066.06;5055177;28;20457;-79
2022/05/17 07:37:58;;;;;;;8.47;5.93;;;;;;;28.05;35.94;95074.84;5054618;28;20450;-79
2022/05/17 07:40:25;;;;;;;10.47;9.00;;;;;;;28.14;37.25;95080.72;5055103;28;20437;-80
2022/05/17 07:42:52;;;;;;;12.20;7.40;;;;;;;28.16;35.76;95073.19;5054982;28;20445;-80
2022/05/17 07:45:19;;;;;;;10.53;7.60;;;;;;;28.05;36.78;95074.03;5055112;28;20495;-80
2022/05/17 07:51:12;;;;;;;14.10;7.70;;;;;;;28.09;36.85;95061.72;5054780;28;20425;-79
2022/05/17 07:53:39;;;;;;;10.23;8.10;;;;;;;28.22;36.74;95058.75;5054818;28;20501;-79
2022/05/17 07:56:06;;;;;;;11.90;9.37;;;;;;;28.17;35.66;95058.66;5054772;28;20453;-80
2022/05/17 07:58:32;;;;;;;13.50;11.50;;;;;;;28.11;37.00;95056.09;5036539;28;20473;-79
2022/05/17 08:00:59;;;;;;;10.90;9.37;;;;;;;27.97;36.78;95056.28;5054376;28;20442;-79
2022/05/17 08:03:26;;;;;;;13.57;9.50;;;;;;;28.02;36.98;95052.88;5054793;28;20430;-80
2022/05/17 08:05:53;;;;;;;11.67;8.07;;;;;;;28.15;35.49;95052.69;5055378;28;20441;-79
2022/05/17 08:08:21;;;;;;;10.40;8.93;;;;;;;28.32;36.22;95048.22;5054884;28;20452;-80
2022/05/17 08:10:48;;;;;;;11.60;10.40;;;;;;;28.26;36.57;95051.03;5054813;28;20445;-80
2022/05/17 08:13:16;;;;;;;13.53;7.67;;;;;;;27.91;36.25;95046.44;5054899;28;20438;-80
2022/05/17 08:15:43;;;;;;;8.80;7.77;;;;;;;28.02;35.99;95036.69;5054633;28;20453;-80
2022/05/17 08:18:10;;;;;;;12.40;7.60;;;;;;;27.58;36.70;95041.56;5019527;28;20449;-80
2022/05/17 08:20:38;;;;;;;11.20;6.80;;;;;;;27.63;36.68;95033.63;5054382;28;20794;-79
2022/05/17 08:23:05;;;;;;;7.73;6.60;;;;;;;27.31;37.42;95032.25;5002964;28;20438;-79
2022/05/17 08:28:18;;;;;;;6.70;5.80;;;;;;;27.55;38.06;95027.75;5054612;28;20421;-79
2022/05/17 08:30:47;;;;;;;7.83;5.80;;;;;;;27.48;37.17;95024.34;5054374;28;20437;-80
2022/05/17 08:33:16;;;;;;;7.60;6.80;;;;;;;27.51;36.63;95022.00;5054265;28;20847;-79
2022/05/17 08:35:45;;;;;;;10.90;6.50;;;;;;;27.75;36.26;95030.94;5054179;28;20452;-79
2022/05/17 08:38:14;;;;;;;7.23;5.70;;;;;;;27.94;36.92;95027.09;5053687;28;20792;-77
2022/05/17 08:41:00;;;;;;;10.00;6.30;;;;;;;28.19;36.99;95026.84;5053777;28;20437;-80
2022/05/17 08:43:33;;;;;;;10.00;6.57;;;;;;;28.44;37.95;95017.69;5054358;28;20450;-79
2022/05/17 08:46:10;;;;;;;8.10;5.23;;;;;;;28.54;35.75;95018.72;5053765;28;20434;-81
2022/05/17 08:48:48;;;;;;;10.30;6.43;;;;;;;28.39;37.18;95015.72;5053848;28;20448;-79
2022/05/17 08:51:18;;;;;;;15.93;5.93;;;;;;;28.57;36.00;95010.16;5019173;28;20492;-80
2022/05/17 08:53:47;;;;;;;10.63;5.27;;;;;;;28.72;35.99;95006.94;5063228;28;20437;-79
2022/05/17 08:56:17;;;;;;;6.40;5.70;;;;;;;28.87;34.97;95001.84;5073642;28;20425;-77
2022/05/17 08:58:48;;;;;;;5.47;4.97;;;;;;;29.02;34.65;95005.94;5071735;28;20484;-80
2022/05/17 09:01:21;;;;;;;8.23;5.70;;;;;;;29.03;34.05;94999.47;5073471;28;20794;-78
2022/05/17 09:04:00;;;;;;;7.40;5.97;;;;;;;28.86;33.19;94994.81;5073567;28;20927;-83
2022/05/17 09:06:36;;;;;;;7.97;6.20;;;;;;;28.86;32.79;94996.69;5073642;28;20433;-80
2022/05/17 09:09:08;;;;;;;9.57;4.87;;;;;;;28.90;32.60;94998.66;5073817;28;20428;-80
2022/05/17 09:11:45;;;;;;;5.90;5.30;;;;;;;28.96;31.48;94988.81;5073485;28;20445;-80
2022/05/17 09:14:16;;;;;;;8.47;5.23;;;;;;;28.98;30.11;94992.09;5073183;28;20527;-79
2022/05/17 09:16:46;;;;;;;4.77;4.30;;;;;;;28.89;30.45;94999.72;5073491;28;20444;-80
2022/05/17 09:19:15;;;;;;;7.00;4.90;;;;;;;28.96;30.94;94994.22;5073133;28;20465;-81
2022/05/17 09:21:44;;;;;;;6.17;5.57;;;;;;;28.95;29.66;94990.69;5073307;28;20507;-80
2022/05/17 09:24:13;;;;;;;11.80;5.10;;;;;;;28.89;30.40;94983.53;5073321;28;20792;-80
2022/05/17 09:26:49;;;;;;;14.00;5.23;;;;;;;28.98;31.46;94990.19;5073088;28;20433;-79
2022/05/17 09:29:19;;;;;;;8.43;5.43;;;;;;;29.01;30.09;94985.38;5073468;28;20431;-80
2022/05/17 09:31:53;;;;;;;6.73;5.23;;;;;;;28.71;30.31;94986.41;5073340;28;20448;-79
2022/05/17 09:34:29;;;;;;;8.90;5.47;;;;;;;28.74;32.20;94987.78;5073078;28;20494;-81
2022/05/17 09:37:00;;;;;;;9.43;5.10;;;;;;;28.68;30.84;94974.19;5038275;28;20935;-80
2022/05/17 09:39:27;;;;;;;5.40;4.90;;;;;;;28.67;30.22;94974.44;5073595;28;20469;-81
2022/05/17 09:42:01;;;;;;;10.20;5.03;;;;;;;28.69;30.84;94966.91;5073452;28;20453;-80
2022/05/17 09:44:30;;;;;;;5.40;4.90;;;;;;;28.72;29.54;94966.44;5073235;28;20440;-79
2022/05/17 09:47:00;;;;;;;6.33;4.20;;;;;;;28.72;29.78;94963.72;5073268;28;20445;-80
2022/05/17 09:52:35;;;;;;;7.43;5.20;;;;;;;28.56;29.56;94950.97;5073030;28;20751;-81
2022/05/17 09:55:22;;;;;;;7.90;5.20;;;;;;;28.72;30.89;94955.63;5072798;28;20991;-81
2022/05/17 09:58:00;;;;;;;10.27;5.67;;;;;;;28.49;29.41;94950.31;5064527;28;20453;-80
2022/05/17 10:00:31;;;;;;;7.37;4.50;;;;;;;28.52;30.20;94947.13;5052908;28;20477;-79
2022/05/17 10:03:00;;;;;;;6.50;4.20;;;;;;;28.37;29.17;94943.06;5053077;28;20438;-79
2022/05/17 10:05:43;;;;;;;4.80;4.40;;;;;;;28.29;28.24;94946.13;5052778;28;20449;-80
2022/05/17 10:08:31;;;;;;;7.17;4.47;;;;;;;28.13;29.66;94946.03;5052693;28;21253;-80
2022/05/17 10:11:18;;;;;;;6.63;4.67;;;;;;;28.11;29.16;94935.47;5053049;28;20459;-81
2022/05/17 10:14:07;;;;;;;4.83;4.43;;;;;;;28.17;30.18;94934.50;5052701;28;20937;-80
2022/05/17 10:16:43;;;;;;;10.63;4.80;;;;;;;28.28;28.87;94927.47;5052827;28;20434;-80
2022/05/17 10:19:20;;;;;;;13.23;5.47;;;;;;;28.37;29.11;94926.06;5052350;28;20481;-81
2022/05/17 10:21:54;;;;;;;7.10;5.07;;;;;;;28.52;29.69;94920.94;5056789;28;20481;-80
2022/05/17 10:31:14;;;;;;;7.17;5.17;;;;;;;28.57;27.36;94912.13;5055376;28;20479;-80
2022/05/17 10:34:00;;;;;;;5.10;4.60;;;;;;;28.48;28.45;94900.88;5057214;28;20781;-79
2022/05/17 10:36:31;;;;;;;6.63;4.10;;;;;;;28.51;28.56;94902.28;5056421;28;20422;-81
2022/05/17 10:39:06;;;;;;;4.20;3.90;;;;;;;28.57;28.10;94901.31;5055945;28;20992;-81
2022/05/17 10:41:45;;;;;;;4.00;3.70;;;;;;;28.65;27.98;94895.53;5056375;28;20867;-81
2022/05/17 11:47:00;;;;;;;8.27;3.90;;;;;;;28.44;30.71;94807.13;5091204;28;20893;-80
2022/05/17 11:49:41;;;;;;;7.17;3.20;;;;;;;28.55;29.98;94804.34;5090690;28;20440;-81
2022/05/17 11:52:30;;;;;;;3.40;3.07;;;;;;;28.64;29.42;94804.78;5091481;28;20438;-78
2022/05/17 11:54:59;;;;;;;4.17;3.73;;;;;;;28.71;28.90;94796.53;5091289;28;20518;-80
2022/05/17 11:58:04;;;;;;;4.87;3.30;;;;;;;28.74;29.18;94802.25;5090691;28;20429;-80
2022/05/17 12:00:45;;;;;;;4.30;3.30;;;;;;;28.75;28.99;94801.19;5090843;28;20480;-80
2022/05/17 12:03:43;;;;;;;3.73;3.53;;;;;;;28.77;27.92;94795.53;5055607;28;20444;-79
2022/05/17 12:09:34;;;;;;;3.03;2.77;;;;;;;28.75;30.19;94786.84;5079975;28;20483;-80
2022/05/17 12:12:17;;;;;;;4.80;3.60;;;;;;;28.66;28.24;94781.06;5070392;28;20788;-79
2022/05/17 12:14:53;;;;;;;3.83;3.60;;;;;;;28.70;29.27;94763.28;5071165;28;20433;-80
2022/05/17 12:17:25;;;;;;;14.80;4.63;;;;;;;28.62;29.80;94766.38;5070382;28;20444;-80
2022/05/17 12:20:00;;;;;;;4.27;3.87;;;;;;;28.56;28.41;94760.09;5070464;28;20434;-79
2022/05/17 12:22:34;;;;;;;9.33;3.60;;;;;;;28.42;29.07;94749.84;5070408;28;20437;-81
2022/05/17 12:25:09;;;;;;;5.43;3.80;;;;;;;28.47;29.97;94763.44;5070717;28;20483;-79
2022/05/17 12:27:41;;;;;;;3.90;3.00;;;;;;;28.45;28.71;94755.59;5070007;28;20780;-79
2022/05/17 12:33:02;;;;;;;4.30;3.90;;;;;;;28.44;29.52;94745.84;5069774;28;20490;-80
2022/05/17 12:35:30;;;;;;;3.37;3.07;;;;;;;28.41;29.54;94742.81;5069898;28;20470;-78
2022/05/17 12:37:58;;;;;;;2.87;2.77;;;;;;;28.40;29.19;94739.31;5069602;28;20806;-80
2022/05/17 12:43:13;;;;;;;8.73;3.63;;;;;;;28.44;29.95;94726.13;5069592;28;20428;-80
2022/05/17 12:45:44;;;;;;;3.40;3.10;;;;;;;28.48;29.12;94711.91;5069839;28;20496;-80
2022/05/17 12:48:18;;;;;;;3.40;3.10;;;;;;;28.60;29.63;94718.03;5069445;28;20433;-79
2022/05/17 12:50:50;;;;;;;3.50;3.20;;;;;;;28.62;29.55;94702.41;5070243;28;20437;-80
2022/05/17 12:53:23;;;;;;;5.40;4.00;;;;;;;28.66;29.05;94700.03;5069412;28;20443;-80
2022/05/17 12:56:06;;;;;;;7.27;3.13;;;;;;;28.66;30.15;94700.03;5068992;28;20448;-80
2022/05/17 12:58:35;;;;;;;3.63;3.33;;;;;;;28.72;29.35;94696.34;5055233;28;20920;-79
2022/05/17 13:01:03;;;;;;;5.60;3.50;;;;;;;28.78;28.59;94691.84;5056034;28;20870;-79
2022/05/17 13:03:32;;;;;;;3.43;3.00;;;;;;;28.83;29.11;94684.63;5055809;28;20426;-80
2022/05/17 13:06:04;;;;;;;6.30;4.20;;;;;;;28.86;29.82;94681.44;5055804;28;20474;-80
2022/05/17 13:08:36;;;;;;;3.17;2.97;;;;;;;28.92;29.08;94672.38;5055639;28;20449;-78
2022/05/17 13:11:07;;;;;;;7.37;3.40;;;;;;;28.99;29.42;94673.00;5037003;28;20571;-79
2022/05/17 13:13:37;;;;;;;4.37;3.80;;;;;;;29.02;29.88;94668.16;5055353;28;20529;-80
2022/05/17 13:16:09;;;;;;;5.10;3.20;;;;;;;28.95;28.94;94662.94;5055542;28;20452;-80
2022/05/17 13:18:40;;;;;;;4.03;3.37;;;;;;;28.88;28.65;94662.28;5055312;28;20450;-80
2022/05/17 13:21:12;;;;;;;4.33;3.60;;;;;;;28.72;28.33;94663.13;5055447;28;20956;-79
2022/05/17 13:23:40;;;;;;;3.47;3.23;;;;;;;28.71;28.89;94645.28;5055331;28;20534;-80
2022/05/17 13:26:07;;;;;;;11.63;3.47;;;;;;;28.69;29.04;94645.53;5055899;28;20470;-79
2022/05/17 13:28:36;;;;;;;4.53;3.90;;;;;;;28.68;28.83;94647.41;5056211;28;20449;-79
2022/05/17 13:31:14;;;;;;;4.37;3.17;;;;;;;28.73;28.58;94648.53;5055556;28;20492;-80
2022/05/17 13:33:54;;;;;;;4.43;3.60;;;;;;;28.76;29.38;94643.47;5055884;28;20928;-78
2022/05/17 13:36:36;;;;;;;13.90;3.83;;;;;;;28.73;29.42;94638.56;5055893;28;20465;-79
2022/05/17 13:39:05;;;;;;;5.43;3.77;;;;;;;28.72;29.55;94631.53;5056069;28;20438;-77
2022/05/17 13:41:39;;;;;;;9.23;3.60;;;;;;;28.69;29.67;94638.25;5055595;28;20449;-79
2022/05/17 13:44:09;;;;;;;4.73;3.60;;;;;;;28.60;28.99;94633.50;5055523;28;20537;-80
2022/05/17 13:46:39;;;;;;;4.60;3.73;;;;;;;28.65;29.61;94628.19;5054827;28;20915;-79
2022/05/17 13:49:15;;;;;;;15.30;10.80;;;;;;;28.70;30.30;94625.56;5055764;28;20455;-79
2022/05/17 13:51:52;;;;;;;6.00;4.27;;;;;;;28.66;29.21;94616.31;5055119;28;20445;-80
2022/05/17 13:54:29;;;;;;;3.67;3.37;;;;;;;28.63;29.49;94606.03;5055164;28;20446;-79
2022/05/17 13:57:01;;;;;;;4.10;3.20;;;;;;;28.62;29.66;94607.06;5004326;28;20448;-79
2022/05/17 13:59:30;;;;;;;3.80;3.27;;;;;;;28.61;29.70;94606.25;5055340;28;20791;-79